Time;durP1;ratioP1;P1;durP2;ratioP2;P2;SDS_P1;SDS_P2;PMS_P1;PMS_P2;Temp;Humidity;BMP_temperature;BMP_pressure;BME280_temperature;BME280_humidity;BME280_pressure;Samples;Min_cycle;Max_cycle;Signal;HPM_P1;HPM_P2
2021/09/22 00:00:23;;;;;;;14.53;9.20;;;13.40;1.00;;;;;;5106796;28;20188;-54
2021/09/22 00:02:49;;;;;;;9.60;8.17;;;13.50;1.00;;;;;;5106312;28;20194;-54
2021/09/22 00:05:15;;;;;;;8.70;7.37;;;13.40;1.00;;;;;;5112532;28;20437;-53
2021/09/22 00:07:41;;;;;;;8.70;7.37;;;13.40;1.00;;;;;;5110806;28;20413;-53
2021/09/22 00:10:17;;;;;;;8.43;7.37;;;13.40;1.00;;;;;;5112581;28;20429;-54
2021/09/22 00:12:42;;;;;;;8.50;7.27;;;13.40;1.00;;;;;;5110886;28;20896;-55
2021/09/22 00:15:12;;;;;;;8.37;7.57;;;13.40;1.00;;;;;;5112696;28;20513;-53
2021/09/22 00:17:37;;;;;;;8.43;7.53;;;13.40;1.00;;;;;;5105322;28;20315;-53
2021/09/22 00:20:04;;;;;;;10.80;7.27;;;13.30;1.00;;;;;;5112392;28;20528;-54
2021/09/22 00:22:29;;;;;;;11.23;9.03;;;13.40;1.00;;;;;;5090213;28;20198;-53
2021/09/22 00:24:55;;;;;;;10.07;9.07;;;13.40;1.00;;;;;;5110179;28;20462;-54
2021/09/22 00:27:20;;;;;;;10.10;6.93;;;13.30;1.00;;;;;;5111500;28;20191;-53
2021/09/22 00:29:46;;;;;;;10.80;8.37;;;13.40;1.00;;;;;;5110585;28;20672;-54
2021/09/22 00:32:11;;;;;;;11.90;7.83;;;13.40;1.00;;;;;;5111082;28;20269;-54
2021/09/22 00:34:37;;;;;;;9.47;7.70;;;13.40;1.00;;;;;;5108275;28;20186;-55
2021/09/22 00:37:06;;;;;;;11.03;7.77;;;13.50;1.00;;;;;;5109418;28;20186;-53
2021/09/22 00:39:35;;;;;;;7.97;6.70;;;13.50;1.00;;;;;;5110681;28;20598;-55
2021/09/22 00:42:04;;;;;;;10.90;9.90;;;13.50;1.00;;;;;;5110074;28;21169;-53
2021/09/22 00:44:30;;;;;;;10.80;7.07;;;13.50;1.00;;;;;;5108719;28;20885;-55
2021/09/22 00:46:56;;;;;;;12.20;9.13;;;13.50;1.00;;;;;;5111834;28;20400;-54
2021/09/22 00:49:22;;;;;;;7.57;6.77;;;13.60;1.00;;;;;;5110900;28;20565;-54
2021/09/22 00:51:48;;;;;;;7.80;6.90;;;13.60;1.00;;;;;;5111559;28;20412;-54
2021/09/22 00:54:13;;;;;;;12.57;7.07;;;13.70;1.00;;;;;;5111049;28;20182;-54
2021/09/22 00:56:39;;;;;;;8.13;7.13;;;13.70;1.00;;;;;;5091943;28;20188;-53
2021/09/22 00:59:05;;;;;;;8.97;7.70;;;13.70;1.00;;;;;;5107890;28;20190;-55
2021/09/22 01:01:32;;;;;;;8.67;7.23;;;13.70;1.00;;;;;;5111614;28;20206;-54
2021/09/22 01:04:00;;;;;;;8.60;7.07;;;13.70;1.00;;;;;;5105805;28;20476;-54
2021/09/22 01:06:26;;;;;;;7.87;6.80;;;13.70;1.00;;;;;;5111356;28;20964;-54
2021/09/22 01:08:52;;;;;;;8.20;7.40;;;13.80;1.00;;;;;;5110691;28;20440;-54
2021/09/22 01:11:19;;;;;;;9.50;7.17;;;13.80;1.00;;;;;;5111280;28;20437;-54
2021/09/22 01:13:45;;;;;;;7.80;6.47;;;13.90;1.00;;;;;;5107437;28;20448;-52
2021/09/22 01:16:10;;;;;;;8.20;7.37;;;13.80;1.00;;;;;;5109673;28;20436;-54
2021/09/22 01:18:36;;;;;;;8.43;7.37;;;13.80;1.00;;;;;;5106034;28;20448;-54
2021/09/22 01:21:02;;;;;;;10.13;7.10;;;13.80;1.00;;;;;;5111097;28;20209;-54
2021/09/22 01:23:29;;;;;;;8.60;6.93;;;13.90;1.00;;;;;;5090746;28;20193;-54
2021/09/22 01:25:55;;;;;;;7.90;6.77;;;13.80;1.00;;;;;;5111417;28;20175;-54
2021/09/22 01:28:26;;;;;;;12.70;6.63;;;13.70;1.00;;;;;;5109655;28;20440;-54
2021/09/22 01:30:53;;;;;;;10.50;6.47;;;13.70;1.00;;;;;;5110471;28;20527;-54
2021/09/22 01:33:22;;;;;;;9.80;7.23;;;13.60;1.00;;;;;;5106762;28;20440;-54
2021/09/22 01:35:48;;;;;;;8.37;7.00;;;13.60;1.00;;;;;;5109397;28;20945;-54
2021/09/22 01:38:25;;;;;;;9.10;6.97;;;13.70;1.00;;;;;;5108368;28;20472;-53
2021/09/22 01:41:03;;;;;;;6.80;6.07;;;13.60;1.00;;;;;;5110969;28;20240;-54
2021/09/22 01:43:30;;;;;;;9.10;7.60;;;13.60;1.00;;;;;;5107962;28;20490;-53
2021/09/22 01:45:57;;;;;;;8.10;6.80;;;13.60;1.00;;;;;;5110137;28;20409;-54
2021/09/22 01:48:22;;;;;;;9.43;7.33;;;13.60;1.00;;;;;;5109309;28;20441;-55
2021/09/22 01:50:48;;;;;;;10.53;8.57;;;13.60;1.00;;;;;;5109777;28;20465;-54
2021/09/22 01:53:14;;;;;;;8.13;6.77;;;13.60;1.00;;;;;;5109519;28;20187;-54
2021/09/22 01:55:39;;;;;;;12.10;7.77;;;13.40;1.00;;;;;;5105305;28;20196;-53
2021/09/22 01:58:05;;;;;;;13.83;7.87;;;13.40;1.00;;;;;;5108367;28;20213;-54
2021/09/22 02:00:30;;;;;;;8.97;8.03;;;13.30;1.00;;;;;;5107798;28;20296;-54
2021/09/22 02:02:56;;;;;;;11.40;7.50;;;13.30;1.00;;;;;;5108946;28;20171;-55
2021/09/22 02:05:22;;;;;;;12.10;7.87;;;13.40;1.00;;;;;;5108094;28;20373;-53
2021/09/22 02:07:48;;;;;;;9.43;8.07;;;13.50;1.00;;;;;;5110694;28;20247;-54
2021/09/22 02:10:13;;;;;;;11.73;7.60;;;13.60;1.00;;;;;;5106355;28;20534;-54
2021/09/22 02:12:39;;;;;;;10.20;7.03;;;13.70;1.00;;;;;;5110737;28;20235;-55
2021/09/22 02:15:05;;;;;;;11.90;8.20;;;13.70;1.00;;;;;;5109944;28;20236;-54
2021/09/22 02:17:31;;;;;;;9.40;7.60;;;13.60;1.00;;;;;;5109181;28;20277;-53
2021/09/22 02:19:57;;;;;;;9.40;8.10;;;13.60;1.00;;;;;;5107147;28;20597;-54
2021/09/22 02:22:22;;;;;;;10.90;8.43;;;13.70;1.00;;;;;;5110386;28;20443;-54
2021/09/22 02:24:48;;;;;;;8.67;7.73;;;13.60;1.00;;;;;;5107687;28;20271;-53
2021/09/22 02:27:18;;;;;;;9.03;8.07;;;13.70;1.00;;;;;;5102691;28;20191;-55
2021/09/22 02:29:44;;;;;;;10.23;7.50;;;13.80;1.00;;;;;;5108924;28;20194;-54
2021/09/22 02:32:09;;;;;;;9.27;7.97;;;13.80;1.00;;;;;;5107607;28;20455;-54
2021/09/22 02:34:35;;;;;;;8.57;7.73;;;13.90;1.00;;;;;;5110566;28;20436;-54
2021/09/22 02:37:01;;;;;;;9.93;7.97;;;13.80;1.00;;;;;;5103715;28;20186;-54
2021/09/22 02:39:27;;;;;;;9.50;7.20;;;13.70;1.00;;;;;;5110321;28;20201;-53
2021/09/22 02:41:53;;;;;;;8.43;7.30;;;13.80;1.00;;;;;;5109421;28;20209;-54
2021/09/22 02:44:18;;;;;;;8.77;7.27;;;13.80;1.00;;;;;;5110085;28;20194;-54
2021/09/22 02:46:44;;;;;;;7.83;7.00;;;13.90;1.00;;;;;;5106900;28;20531;-54
2021/09/22 02:49:10;;;;;;;9.70;7.93;;;13.80;1.00;;;;;;5090942;28;20221;-54
2021/09/22 02:51:36;;;;;;;10.47;7.83;;;13.70;1.00;;;;;;5088688;28;20454;-53
2021/09/22 02:54:02;;;;;;;8.90;7.43;;;13.70;1.00;;;;;;5107172;28;20183;-54
2021/09/22 02:56:28;;;;;;;8.37;7.57;;;13.70;1.00;;;;;;5110144;28;20252;-54
2021/09/22 02:58:53;;;;;;;8.47;7.20;;;13.70;1.00;;;;;;5109117;28;20415;-54
2021/09/22 03:01:19;;;;;;;9.97;6.67;;;13.80;1.00;;;;;;5108435;28;20222;-54
2021/09/22 03:03:45;;;;;;;7.47;6.60;;;13.80;1.00;;;;;;5095354;28;20183;-55
2021/09/22 03:06:11;;;;;;;9.90;6.77;;;13.80;1.00;;;;;;5112894;28;20873;-54
2021/09/22 03:08:38;;;;;;;8.90;7.07;;;13.70;1.00;;;;;;5094923;28;20549;-53
2021/09/22 03:11:06;;;;;;;9.47;7.23;;;13.70;1.00;;;;;;5111983;28;20449;-54
2021/09/22 03:13:33;;;;;;;9.53;6.53;;;13.80;1.00;;;;;;5113535;28;20912;-53
2021/09/22 03:15:59;;;;;;;10.97;6.90;;;13.90;1.00;;;;;;5110740;28;20451;-53
2021/09/22 03:18:25;;;;;;;9.10;7.13;;;13.90;1.00;;;;;;5113973;28;20441;-54
2021/09/22 03:20:51;;;;;;;14.33;8.17;;;13.80;1.00;;;;;;5112867;28;20468;-55
2021/09/22 03:23:17;;;;;;;8.73;7.23;;;13.90;1.00;;;;;;5113885;28;20344;-54
2021/09/22 03:25:42;;;;;;;9.53;6.93;;;14.00;1.00;;;;;;5108082;28;20539;-54
2021/09/22 03:28:08;;;;;;;9.20;6.87;;;13.90;1.00;;;;;;5109349;28;20536;-54
2021/09/22 03:30:33;;;;;;;8.30;6.67;;;14.00;1.00;;;;;;5107930;28;20227;-53
2021/09/22 03:32:59;;;;;;;8.93;7.00;;;14.00;1.00;;;;;;5112436;28;20537;-54
2021/09/22 03:35:24;;;;;;;8.97;7.40;;;14.10;1.00;;;;;;5110045;28;20210;-54
2021/09/22 03:37:50;;;;;;;11.87;7.03;;;14.00;1.00;;;;;;5113098;28;20689;-53
2021/09/22 03:40:16;;;;;;;11.60;7.33;;;14.10;1.00;;;;;;5094441;28;20183;-55
2021/09/22 03:42:41;;;;;;;11.60;8.23;;;14.10;1.00;;;;;;5110517;28;20187;-54
2021/09/22 03:45:08;;;;;;;10.30;7.37;;;14.10;1.00;;;;;;5109454;28;20183;-54
2021/09/22 03:47:33;;;;;;;8.63;7.80;;;14.10;1.00;;;;;;5109952;28;20183;-54
2021/09/22 03:49:59;;;;;;;10.13;6.60;;;14.20;1.00;;;;;;5108993;28;20842;-54
2021/09/22 03:52:24;;;;;;;11.33;8.37;;;14.10;1.00;;;;;;5094574;28;20193;-53
2021/09/22 03:54:50;;;;;;;9.47;7.47;;;14.00;1.00;;;;;;5107857;28;20211;-54
2021/09/22 03:57:16;;;;;;;9.67;7.03;;;13.90;1.00;;;;;;5113012;28;20198;-53
2021/09/22 03:59:42;;;;;;;10.43;7.00;;;13.90;1.00;;;;;;5107769;27;20716;-55
2021/09/22 04:02:08;;;;;;;13.03;8.23;;;14.00;1.00;;;;;;5112553;28;20563;-54
2021/09/22 04:04:34;;;;;;;8.87;6.20;;;13.90;1.00;;;;;;5111320;28;20452;-53
2021/09/22 04:06:59;;;;;;;10.73;6.80;;;14.00;1.00;;;;;;5111651;28;20214;-53
2021/09/22 04:09:26;;;;;;;8.80;6.90;;;14.00;1.00;;;;;;5111249;28;20190;-54
2021/09/22 04:11:52;;;;;;;9.10;7.10;;;14.00;1.00;;;;;;5109410;28;20626;-53
2021/09/22 04:14:17;;;;;;;15.53;7.73;;;14.00;1.00;;;;;;5101944;28;20452;-55
2021/09/22 04:16:43;;;;;;;10.63;7.00;;;13.90;1.00;;;;;;5107523;28;20712;-58
2021/09/22 04:19:09;;;;;;;13.70;6.83;;;14.00;1.00;;;;;;5108051;28;20213;-59
2021/09/22 04:21:35;;;;;;;14.07;7.20;;;14.00;1.00;;;;;;5111784;28;20474;-60
2021/09/22 04:24:00;;;;;;;11.60;7.17;;;14.10;1.00;;;;;;5091079;28;20189;-59
2021/09/22 04:26:26;;;;;;;10.20;7.23;;;14.10;1.00;;;;;;5105690;28;20440;-59
2021/09/22 04:28:51;;;;;;;12.33;7.30;;;14.10;1.00;;;;;;5110994;28;20182;-60
2021/09/22 04:31:17;;;;;;;10.50;6.40;;;14.20;1.00;;;;;;5113057;28;20190;-60
2021/09/22 04:33:43;;;;;;;8.37;6.50;;;14.00;1.00;;;;;;5102198;28;20552;-61
2021/09/22 04:36:08;;;;;;;10.20;7.27;;;14.10;1.00;;;;;;5110721;28;20186;-59
2021/09/22 04:38:35;;;;;;;8.50;6.30;;;14.10;1.00;;;;;;5093145;28;20244;-58
2021/09/22 04:41:00;;;;;;;13.93;7.40;;;14.00;1.00;;;;;;5090842;28;20194;-67
2021/09/22 04:43:26;;;;;;;14.73;7.43;;;14.00;1.00;;;;;;5108681;28;20441;-59
2021/09/22 04:45:51;;;;;;;11.97;6.40;;;14.00;1.00;;;;;;5108776;28;20178;-61
2021/09/22 04:48:17;;;;;;;9.43;6.50;;;14.00;1.00;;;;;;5110962;28;20187;-59
2021/09/22 04:50:43;;;;;;;8.30;6.07;;;14.10;1.00;;;;;;5091648;28;20294;-59
2021/09/22 04:53:08;;;;;;;9.23;7.17;;;14.10;1.00;;;;;;5112315;28;21173;-61
2021/09/22 04:55:34;;;;;;;10.97;6.87;;;14.00;1.00;;;;;;5103743;28;20191;-57
2021/09/22 04:57:59;;;;;;;11.73;6.47;;;13.90;1.00;;;;;;5109910;28;20194;-58
2021/09/22 05:00:25;;;;;;;19.93;7.13;;;13.90;1.00;;;;;;5107740;28;20277;-57
2021/09/22 05:02:51;;;;;;;12.63;6.83;;;14.00;1.00;;;;;;5110803;28;20171;-58
2021/09/22 05:05:16;;;;;;;13.93;7.10;;;13.90;1.00;;;;;;5111418;28;20681;-59
2021/09/22 05:07:42;;;;;;;12.57;6.27;;;13.90;1.00;;;;;;5112541;28;20185;-58
2021/09/22 05:10:08;;;;;;;9.83;6.37;;;13.90;1.00;;;;;;5108783;28;20216;-58
2021/09/22 05:12:34;;;;;;;11.93;6.60;;;14.00;1.00;;;;;;5107751;28;20182;-58
2021/09/22 05:14:59;;;;;;;13.00;6.93;;;14.00;1.00;;;;;;5105383;28;20958;-58
2021/09/22 05:17:25;;;;;;;13.93;7.07;;;13.90;1.00;;;;;;5097900;28;20640;-58
2021/09/22 05:19:51;;;;;;;12.60;6.67;;;13.90;1.00;;;;;;5108534;27;20213;-57
2021/09/22 05:22:17;;;;;;;13.17;6.40;;;13.90;1.00;;;;;;5105779;28;20439;-61
2021/09/22 05:24:43;;;;;;;14.73;7.23;;;14.00;1.00;;;;;;5110400;27;20178;-60
2021/09/22 05:27:09;;;;;;;16.00;6.03;;;13.90;1.00;;;;;;5108838;28;20587;-57
2021/09/22 05:29:35;;;;;;;9.67;6.50;;;14.00;1.00;;;;;;5108244;28;20417;-59
2021/09/22 05:32:01;;;;;;;14.20;7.10;;;13.90;1.00;;;;;;5109122;28;20168;-59
2021/09/22 05:34:27;;;;;;;9.00;6.63;;;13.90;1.00;;;;;;5109475;28;20505;-58
2021/09/22 05:36:52;;;;;;;15.63;7.37;;;13.90;1.00;;;;;;5108509;28;20188;-58
2021/09/22 05:39:18;;;;;;;13.93;6.83;;;13.90;1.00;;;;;;5110316;28;20196;-58
2021/09/22 05:41:43;;;;;;;15.80;6.73;;;14.00;1.00;;;;;;5110358;28;20206;-59
2021/09/22 05:44:09;;;;;;;11.40;7.17;;;14.00;1.00;;;;;;5110211;28;20265;-58
2021/09/22 05:46:36;;;;;;;14.73;6.53;;;14.10;1.00;;;;;;5111476;28;20487;-60
2021/09/22 05:49:02;;;;;;;13.07;6.93;;;14.10;1.00;;;;;;5107814;28;20218;-59
2021/09/22 05:51:28;;;;;;;12.40;5.97;;;14.10;1.00;;;;;;5110164;28;20440;-59
2021/09/22 05:53:53;;;;;;;12.70;8.00;;;14.20;1.00;;;;;;5106467;28;20437;-58
2021/09/22 05:56:19;;;;;;;14.00;6.07;;;14.20;1.00;;;;;;5107528;28;20636;-59
2021/09/22 05:58:45;;;;;;;10.50;5.97;;;14.30;1.00;;;;;;5110330;28;20288;-58
2021/09/22 06:01:10;;;;;;;7.70;5.40;;;14.40;1.00;;;;;;5092909;28;20199;-60
2021/09/22 06:03:36;;;;;;;14.93;7.87;;;14.50;1.00;;;;;;5110497;28;20509;-57
2021/09/22 06:06:02;;;;;;;12.50;7.53;;;14.50;1.00;;;;;;5107437;28;20182;-58
2021/09/22 06:08:27;;;;;;;9.17;6.13;;;14.50;1.00;;;;;;5107126;28;20757;-61
2021/09/22 06:10:53;;;;;;;11.00;5.43;;;14.70;1.00;;;;;;5108938;28;20197;-61
2021/09/22 06:13:18;;;;;;;15.70;6.23;;;14.70;1.00;;;;;;5110783;28;20637;-60
2021/09/22 06:15:44;;;;;;;14.07;6.33;;;14.80;1.00;;;;;;5110138;28;20194;-59
2021/09/22 06:18:09;;;;;;;7.63;5.97;;;14.80;1.00;;;;;;5110679;28;20673;-60
2021/09/22 06:20:36;;;;;;;15.87;6.47;;;14.90;1.00;;;;;;5110331;28;20197;-60
2021/09/22 06:23:02;;;;;;;14.63;6.60;;;14.90;1.00;;;;;;5111810;28;20176;-60
2021/09/22 06:25:27;;;;;;;13.70;5.97;;;15.00;1.00;;;;;;5110867;28;20415;-61
2021/09/22 06:27:53;;;;;;;13.77;6.03;;;14.90;1.00;;;;;;5110487;28;20176;-59
2021/09/22 06:30:19;;;;;;;10.23;6.10;;;15.00;1.00;;;;;;5110681;28;20236;-61
2021/09/22 06:32:45;;;;;;;14.73;7.40;;;15.00;1.00;;;;;;5113145;28;20190;-58
2021/09/22 06:35:11;;;;;;;18.33;7.13;;;15.10;1.00;;;;;;5114572;28;20436;-59
2021/09/22 06:37:37;;;;;;;19.90;7.07;;;15.00;1.00;;;;;;5114580;28;20263;-59
2021/09/22 06:40:05;;;;;;;12.60;6.57;;;15.00;1.00;;;;;;5114167;28;20471;-58
2021/09/22 06:42:30;;;;;;;14.53;6.30;;;15.10;1.00;;;;;;5114219;28;20523;-58
2021/09/22 06:44:56;;;;;;;13.40;6.33;;;15.10;1.00;;;;;;5114532;28;20559;-58
2021/09/22 06:47:22;;;;;;;9.77;6.60;;;14.90;1.00;;;;;;5114397;27;20217;-58
2021/09/22 06:49:48;;;;;;;10.87;6.27;;;14.90;1.00;;;;;;5114349;28;20213;-58
2021/09/22 06:52:13;;;;;;;11.60;6.23;;;14.80;1.00;;;;;;5113950;28;20716;-59
2021/09/22 06:54:39;;;;;;;15.70;6.10;;;14.90;1.00;;;;;;5114246;28;20436;-58
2021/09/22 06:57:05;;;;;;;18.13;6.70;;;14.80;1.00;;;;;;5111945;28;20182;-59
2021/09/22 06:59:30;;;;;;;9.30;5.50;;;14.70;1.00;;;;;;5113984;28;20185;-57
2021/09/22 07:01:56;;;;;;;13.17;6.17;;;14.80;1.00;;;;;;5114325;28;20210;-59
2021/09/22 07:04:24;;;;;;;13.40;5.47;;;14.80;1.00;;;;;;5111052;28;20189;-59
2021/09/22 07:06:50;;;;;;;11.37;5.70;;;14.90;1.00;;;;;;5108663;28;20180;-58
2021/09/22 07:09:15;;;;;;;10.00;6.20;;;14.80;1.00;;;;;;5113880;28;20428;-57
2021/09/22 07:11:41;;;;;;;14.67;5.93;;;14.90;1.00;;;;;;5114008;28;20536;-58
2021/09/22 07:14:06;;;;;;;15.90;5.70;;;14.70;1.00;;;;;;5113606;28;20211;-59
2021/09/22 07:16:32;;;;;;;9.97;6.50;;;14.80;1.00;;;;;;5113751;28;20191;-58
2021/09/22 07:18:57;;;;;;;13.30;5.93;;;14.80;1.00;;;;;;5100614;28;20188;-60
2021/09/22 07:21:24;;;;;;;14.37;6.10;;;14.90;1.00;;;;;;5109084;28;20200;-57
2021/09/22 07:23:50;;;;;;;14.30;6.10;;;15.20;1.00;;;;;;5102461;28;20192;-58
2021/09/22 07:26:16;;;;;;;13.23;6.87;;;15.40;1.00;;;;;;5106182;28;20412;-58
2021/09/22 07:28:42;;;;;;;14.43;5.60;;;15.50;1.00;;;;;;5105837;28;20437;-57
2021/09/22 07:31:07;;;;;;;12.90;5.40;;;15.60;1.00;;;;;;5111325;28;20416;-57
2021/09/22 07:33:33;;;;;;;13.53;5.90;;;15.50;1.00;;;;;;5111366;28;20922;-57
2021/09/22 07:35:59;;;;;;;16.57;5.10;;;15.60;1.00;;;;;;5113695;28;20277;-58
2021/09/22 07:38:26;;;;;;;13.30;6.03;;;15.60;1.00;;;;;;5101321;28;20442;-58
2021/09/22 07:40:52;;;;;;;16.43;6.47;;;15.60;1.00;;;;;;5113150;28;20447;-57
2021/09/22 07:43:18;;;;;;;10.90;5.17;;;15.60;1.00;;;;;;5093052;28;20449;-57
2021/09/22 07:45:44;;;;;;;13.50;5.50;;;15.60;1.00;;;;;;5112351;27;20451;-57
2021/09/22 07:48:10;;;;;;;15.43;5.80;;;15.70;1.00;;;;;;5104348;28;20195;-56
2021/09/22 07:50:35;;;;;;;14.20;5.57;;;15.60;1.00;;;;;;5078565;28;20451;-58
2021/09/22 07:53:01;;;;;;;13.27;5.57;;;15.70;1.00;;;;;;5071347;28;20193;-58
2021/09/22 07:55:27;;;;;;;18.90;7.07;;;15.60;1.00;;;;;;5070389;28;20667;-58
2021/09/22 07:57:55;;;;;;;10.33;4.67;;;15.90;1.00;;;;;;5065097;28;20705;-57
2021/09/22 08:00:22;;;;;;;17.77;6.20;;;16.00;1.00;;;;;;5071175;28;20183;-59
2021/09/22 08:02:48;;;;;;;13.17;4.93;;;16.10;1.00;;;;;;5068702;28;20563;-57
2021/09/22 08:05:14;;;;;;;8.57;5.20;;;16.20;1.00;;;;;;5072272;28;20797;-58
2021/09/22 08:07:40;;;;;;;11.57;6.10;;;16.00;1.00;;;;;;5072185;28;20418;-58
2021/09/22 08:10:06;;;;;;;15.37;5.70;;;15.90;1.00;;;;;;5071014;28;20191;-58
2021/09/22 08:12:32;;;;;;;12.00;5.30;;;16.00;1.00;;;;;;5072256;28;20416;-58
2021/09/22 08:14:58;;;;;;;12.33;5.47;;;16.10;1.00;;;;;;5071576;28;20442;-58
2021/09/22 08:17:23;;;;;;;14.57;5.00;;;16.10;1.00;;;;;;5065551;28;20684;-58
2021/09/22 08:19:49;;;;;;;11.23;5.97;;;16.00;1.00;;;;;;5071407;28;20234;-57
2021/09/22 08:22:15;;;;;;;13.30;5.40;;;16.10;1.00;;;;;;5068837;28;20211;-59
2021/09/22 08:24:41;;;;;;;16.17;6.73;;;16.30;1.00;;;;;;5068254;28;20277;-58
2021/09/22 08:27:06;;;;;;;16.57;6.13;;;16.30;1.00;;;;;;5071437;28;20418;-59
2021/09/22 08:29:33;;;;;;;13.53;5.00;;;16.40;1.00;;;;;;5069072;28;20197;-58
2021/09/22 08:31:59;;;;;;;16.20;6.60;;;16.40;1.00;;;;;;5068546;28;20187;-59
2021/09/22 08:34:25;;;;;;;14.83;5.37;;;16.40;1.00;;;;;;5070959;28;20508;-58
2021/09/22 08:36:51;;;;;;;13.40;5.30;;;16.30;1.00;;;;;;5068520;28;20183;-60
2021/09/22 08:39:18;;;;;;;25.13;5.93;;;16.40;1.00;;;;;;5070343;28;22044;-58
2021/09/22 08:41:44;;;;;;;16.20;5.07;;;16.10;1.00;;;;;;5067247;28;20230;-57
2021/09/22 08:44:12;;;;;;;13.83;4.97;;;16.10;1.00;;;;;;5064868;28;20813;-57
2021/09/22 08:46:40;;;;;;;15.70;5.87;;;16.00;1.00;;;;;;5069308;28;20660;-57
2021/09/22 08:49:07;;;;;;;19.57;4.90;;;15.90;1.00;;;;;;5071489;28;20439;-58
2021/09/22 08:51:33;;;;;;;14.47;4.93;;;15.90;1.00;;;;;;5111322;28;20798;-58
2021/09/22 08:53:59;;;;;;;13.60;4.47;;;16.10;1.00;;;;;;5105380;28;20446;-58
2021/09/22 08:56:26;;;;;;;13.90;5.80;;;16.20;1.00;;;;;;5108276;28;20821;-59
2021/09/22 08:58:52;;;;;;;11.93;4.77;;;16.40;1.00;;;;;;5111541;28;20587;-57
2021/09/22 09:01:22;;;;;;;13.40;5.07;;;16.60;1.00;;;;;;5111819;28;20452;-58
2021/09/22 09:03:49;;;;;;;12.50;4.97;;;16.80;1.00;;;;;;5112018;28;20404;-56
2021/09/22 09:06:21;;;;;;;7.53;4.10;;;16.80;1.00;;;;;;5111779;28;20420;-57
2021/09/22 09:08:57;;;;;;;12.43;4.77;;;16.80;1.00;;;;;;5113095;27;20415;-57
2021/09/22 09:11:37;;;;;;;11.13;4.17;;;17.00;1.00;;;;;;5111816;28;20878;-58
2021/09/22 09:14:05;;;;;;;11.13;4.80;;;17.20;1.00;;;;;;5111468;28;20442;-58
2021/09/22 09:16:39;;;;;;;9.83;4.00;;;17.30;1.00;;;;;;5111693;28;20744;-57
2021/09/22 09:19:30;;;;;;;8.33;3.60;;;17.20;1.00;;;;;;5111520;28;20716;-58
2021/09/22 09:22:08;;;;;;;15.70;4.93;;;17.00;1.00;;;;;;5107502;28;20444;-57
2021/09/22 09:24:38;;;;;;;17.10;4.70;;;17.00;1.00;;;;;;5111458;28;20579;-58
2021/09/22 09:27:08;;;;;;;13.77;4.23;;;16.80;1.00;;;;;;5111639;28;20578;-57
2021/09/22 09:29:34;;;;;;;11.30;4.00;;;16.90;1.00;;;;;;5111786;28;20756;-58
2021/09/22 09:32:18;;;;;;;14.83;4.40;;;16.90;1.00;;;;;;5111318;28;20413;-56
2021/09/22 09:35:06;;;;;;;13.97;3.93;;;16.90;1.00;;;;;;5111600;28;20420;-57
2021/09/22 09:37:55;;;;;;;9.83;3.90;;;17.10;1.00;;;;;;5109266;28;20447;-57
2021/09/22 09:40:32;;;;;;;9.73;3.80;;;17.50;1.00;;;;;;5110934;28;20436;-57
2021/09/22 09:43:02;;;;;;;7.30;2.80;;;17.60;1.00;;;;;;5111459;28;20496;-58
2021/09/22 09:45:36;;;;;;;14.13;3.80;;;17.50;1.00;;;;;;5111305;28;20397;-57
2021/09/22 09:48:04;;;;;;;14.13;4.10;;;17.70;1.00;;;;;;5110845;28;20817;-58
2021/09/22 09:50:36;;;;;;;11.80;4.47;;;17.70;1.00;;;;;;5110862;28;20495;-58
2021/09/22 09:53:01;;;;;;;10.10;4.40;;;17.60;1.00;;;;;;5111335;28;20439;-59
2021/09/22 09:55:28;;;;;;;8.63;4.30;;;17.70;1.00;;;;;;5091079;28;20798;-57
2021/09/22 09:57:55;;;;;;;12.37;3.90;;;17.90;1.00;;;;;;5110491;28;20174;-57
2021/09/22 10:00:43;;;;;;;9.23;3.60;;;17.90;1.00;;;;;;5110876;28;20550;-58
2021/09/22 10:03:15;;;;;;;11.70;3.70;;;17.90;1.00;;;;;;5107927;28;20436;-58
2021/09/22 10:05:41;;;;;;;9.73;3.93;;;18.00;1.00;;;;;;5094190;28;20397;-57
2021/09/22 10:08:09;;;;;;;10.87;3.67;;;18.00;1.00;;;;;;5112806;28;20955;-59
2021/09/22 10:10:35;;;;;;;7.63;3.83;;;17.70;1.00;;;;;;5100391;28;20475;-60
2021/09/22 10:13:01;;;;;;;9.50;3.67;;;17.50;1.00;;;;;;5110896;28;20411;-60
2021/09/22 10:15:29;;;;;;;10.77;3.70;;;17.50;1.00;;;;;;5110493;28;20431;-57
2021/09/22 10:17:55;;;;;;;11.80;3.90;;;17.40;1.00;;;;;;5112367;28;20450;-59
2021/09/22 10:20:21;;;;;;;10.80;3.80;;;17.30;1.00;;;;;;5110290;28;20444;-57
2021/09/22 10:22:46;;;;;;;15.50;4.33;;;17.50;1.00;;;;;;5110399;28;20918;-58
2021/09/22 10:25:13;;;;;;;13.30;3.43;;;17.40;1.00;;;;;;5110333;28;20252;-57
2021/09/22 10:27:40;;;;;;;8.30;3.67;;;17.40;1.00;;;;;;5110267;28;20177;-57
2021/09/22 10:30:11;;;;;;;14.13;5.10;;;17.60;1.00;;;;;;5110561;28;20508;-58
2021/09/22 10:32:41;;;;;;;13.67;4.90;;;17.60;1.00;;;;;;5110336;28;20408;-58
2021/09/22 10:35:26;;;;;;;11.10;4.10;;;17.50;1.00;;;;;;5110957;28;20460;-59
2021/09/22 10:38:00;;;;;;;9.17;3.97;;;17.60;1.00;;;;;;5109402;28;20814;-57
2021/09/22 10:40:34;;;;;;;13.43;4.00;;;17.60;1.00;;;;;;5110348;28;20442;-57
2021/09/22 10:43:15;;;;;;;13.77;4.23;;;17.70;1.00;;;;;;5110549;28;20421;-58
2021/09/22 10:45:45;;;;;;;11.77;4.50;;;17.70;1.00;;;;;;5110210;28;20904;-58
2021/09/22 10:48:22;;;;;;;11.63;3.93;;;17.90;1.00;;;;;;5110545;28;20459;-57
2021/09/22 10:50:53;;;;;;;10.03;3.13;;;18.20;1.00;;;;;;5110342;28;20444;-58
2021/09/22 10:53:31;;;;;;;9.27;3.90;;;18.50;1.00;;;;;;5110627;28;20460;-56
2021/09/22 10:56:07;;;;;;;7.87;3.60;;;18.60;1.00;;;;;;5110744;28;20464;-57
2021/09/22 10:58:41;;;;;;;12.20;4.80;;;18.60;1.00;;;;;;5110033;28;20576;-58
2021/09/22 11:01:06;;;;;;;11.10;3.40;;;18.30;1.00;;;;;;5109931;28;20478;-58
2021/09/22 11:03:51;;;;;;;12.90;3.60;;;18.30;1.00;;;;;;5110319;28;20948;-57
2021/09/22 11:06:44;;;;;;;9.03;2.90;;;18.40;1.00;;;;;;5095819;28;20450;-58
2021/09/22 11:09:11;;;;;;;8.27;3.13;;;18.60;1.00;;;;;;5110550;28;20398;-58
2021/09/22 11:11:55;;;;;;;7.20;4.13;;;19.00;1.00;;;;;;5110294;28;21008;-57
2021/09/22 11:14:27;;;;;;;9.63;3.67;;;19.10;1.00;;;;;;5091972;28;20410;-59
2021/09/22 11:16:54;;;;;;;14.97;3.70;;;19.00;1.00;;;;;;5110036;28;20403;-59
2021/09/22 11:19:21;;;;;;;14.30;3.73;;;19.10;1.00;;;;;;5097118;28;20928;-58
2021/09/22 11:21:48;;;;;;;10.13;3.60;;;19.00;1.00;;;;;;5113333;28;20467;-58
2021/09/22 11:24:15;;;;;;;7.70;3.50;;;19.20;1.00;;;;;;5105666;28;20418;-58
2021/09/22 11:26:51;;;;;;;11.40;4.33;;;19.00;1.00;;;;;;5113462;28;20441;-58
2021/09/22 11:29:39;;;;;;;11.00;3.23;;;18.80;1.00;;;;;;5111563;28;20420;-57
2021/09/22 11:32:08;;;;;;;7.27;2.50;;;18.70;1.00;;;;;;5112031;28;20774;-58
2021/09/22 11:34:37;;;;;;;13.43;3.63;;;18.70;1.00;;;;;;5113691;28;20473;-57
2021/09/22 11:37:09;;;;;;;10.77;3.10;;;18.60;1.00;;;;;;5113414;28;20496;-59
2021/09/22 11:39:35;;;;;;;11.30;3.30;;;18.60;1.00;;;;;;5113491;28;20742;-58
2021/09/22 11:42:01;;;;;;;21.00;5.20;;;18.30;1.00;;;;;;5113028;28;20990;-57
2021/09/22 11:44:31;;;;;;;11.70;3.80;;;18.40;1.00;;;;;;5113208;28;20432;-59
2021/09/22 11:47:02;;;;;;;9.50;3.07;;;18.70;1.00;;;;;;5112938;28;20640;-57
2021/09/22 11:49:39;;;;;;;9.30;3.80;;;18.80;1.00;;;;;;5113063;28;20924;-58
2021/09/22 11:52:22;;;;;;;7.53;3.10;;;18.80;1.00;;;;;;5113035;28;20412;-57
2021/09/22 11:54:58;;;;;;;13.67;2.83;;;18.90;1.00;;;;;;5112931;28;20479;-57
2021/09/22 11:57:30;;;;;;;9.83;3.03;;;19.10;1.00;;;;;;5113177;28;20790;-57
2021/09/22 11:59:56;;;;;;;8.07;2.93;;;19.00;1.00;;;;;;5113042;28;20484;-56
2021/09/22 12:02:26;;;;;;;9.10;3.00;;;19.20;1.00;;;;;;5118127;27;20467;-58
2021/09/22 12:04:52;;;;;;;10.10;3.30;;;19.10;1.00;;;;;;5113124;28;21015;-58
2021/09/22 12:07:29;;;;;;;12.13;3.87;;;18.90;1.00;;;;;;5113028;28;20447;-57
2021/09/22 12:09:59;;;;;;;8.67;2.63;;;19.10;1.00;;;;;;5105049;28;20435;-57
2021/09/22 12:12:25;;;;;;;10.70;2.87;;;19.30;1.00;;;;;;5112970;28;20437;-58
2021/09/22 12:14:53;;;;;;;10.73;3.17;;;19.50;1.00;;;;;;5111707;28;20780;-58
2021/09/22 12:17:21;;;;;;;7.50;2.90;;;19.40;1.00;;;;;;5111811;28;20190;-58
2021/09/22 12:19:48;;;;;;;11.50;3.37;;;19.50;1.00;;;;;;5107360;28;20438;-59
2021/09/22 12:22:19;;;;;;;11.40;3.20;;;19.40;1.00;;;;;;5110587;28;20458;-59
2021/09/22 12:24:45;;;;;;;8.60;3.17;;;19.20;1.00;;;;;;5107783;28;20414;-58
2021/09/22 12:27:20;;;;;;;7.83;2.93;;;19.20;1.00;;;;;;5112226;28;20410;-57
2021/09/22 12:30:07;;;;;;;9.83;2.90;;;19.30;1.00;;;;;;5111875;28;20427;-59
2021/09/22 12:32:37;;;;;;;10.47;3.17;;;19.20;1.00;;;;;;5107056;28;20568;-58
2021/09/22 12:35:06;;;;;;;8.90;2.90;;;19.30;1.00;;;;;;5111257;28;20881;-57
2021/09/22 12:37:33;;;;;;;14.57;3.20;;;19.60;1.00;;;;;;5095032;28;20421;-59
2021/09/22 12:40:03;;;;;;;11.20;3.10;;;19.60;1.00;;;;;;5112207;28;20660;-57
2021/09/22 12:42:39;;;;;;;13.23;3.40;;;19.30;1.00;;;;;;5111803;28;20461;-58
2021/09/22 12:45:10;;;;;;;7.23;2.50;;;19.20;1.00;;;;;;5112405;27;20435;-58
2021/09/22 12:47:37;;;;;;;11.73;3.83;;;19.30;1.00;;;;;;5112310;28;20436;-57
2021/09/22 12:50:09;;;;;;;12.93;3.13;;;19.30;1.00;;;;;;5111724;28;20477;-60
2021/09/22 12:52:35;;;;;;;8.10;2.93;;;19.60;1.00;;;;;;5111400;27;20435;-59